CheckWX is a tool to help pilots better visualize weather data.  It is not intended as a substitute for an official pre-flight weather briefing.

20:10:49 UTC

FMEP METAR
Pierrefonds Airport
St Pierre, Reunion
Current

41 mins ago

FMEP 231930Z AUTO 10005KT CAVOK 26/22 Q1015
Observed
Apr-23 @ 19:30 UTC
Wind
  • 100° at 5 KTS
Visibility
10,000+ meters
Flight Rules
VFR
Cloud Levels
  • Clear skies
Temperature
26°C / 79°F
Dewpoint
22°C / 72°F
Humidity
79%
Altimeter
29.97" Hg
Pressure
1014.92 hPa
Previous

1 hour ago

FMEP 231900Z AUTO 10005KT CAVOK 26/22 Q1015
Observed
Apr-23 @ 19:00 UTC
Wind
  • 100° at 5 KTS
Visibility
10,000+ meters
Flight Rules
VFR
Cloud Levels
  • Clear skies
Temperature
26°C / 79°F
Dewpoint
22°C / 72°F
Humidity
79%
Altimeter
29.97" Hg
Pressure
1014.92 hPa
Previous

2 hours ago

FMEP 231830Z AUTO 10004KT CAVOK 26/22 Q1015
Observed
Apr-23 @ 18:30 UTC
Wind
  • 100° at 4 KTS
Visibility
10,000+ meters
Flight Rules
VFR
Cloud Levels
  • Clear skies
Temperature
26°C / 79°F
Dewpoint
22°C / 72°F
Humidity
79%
Altimeter
29.97" Hg
Pressure
1014.92 hPa